Dades meteomassalio
Diari Summary for Abril 18, 2017 Units:  Metric    English   Both
« Previous Day
Next Day »
Diari Semanal Mensual Anual Personalitzat
  Maxima: Minima: Mijana:
Temperatura: -17.8 °C -12.1 °C -8.1 °C
Rosada: -17.8 °C -14.7 °C -13.5 °C
Humitat: Humidity % 31 % 55 %
Velocitat del vent: 0 km/h 0 km/h 18 km/h
Racha vent: 0 km/h - -
Vent:- - WNW
Pressio: 0 hPa 34303.6 hPa -
Pluja: 0 mm    
Historical Graphs
 
 
Tabular Data for Abril 18, 2017
Time Temperature Dew Point Pressure Wind Wind Speed Wind Gust Humidity Rainfall Rate (Hourly) solar Conditions
-17.8 °C -17.8 °C 0 hPa Calm     Humidity % 0 mm SolarRadiationWatts/m^2 W/m2 Conditions
00:00 -10.1 °C -12.2 °C 34405.1 hPa Calm     78 % 0 mm 0.0 W/m2 CLR
00:05 -10.1 °C -12.1 °C 34418.7 hPa Calm     79 % 0 mm 0.0 W/m2 CLR
00:10 -10 °C -12.1 °C 34418.7 hPa Calm     78 % 0 mm 0.0 W/m2 CLR
00:15 -9.9 °C -12.1 °C 34418.7 hPa Calm     78 % 0 mm 0.0 W/m2 CLR
00:20 -10.1 °C -12.2 °C 34418.7 hPa Calm     77 % 0 mm 0.0 W/m2 CLR
00:25 -10.2 °C -12.3 °C 34418.7 hPa Calm     77 % 0 mm 0.0 W/m2 CLR
00:31 -10.2 °C -12.4 °C 34418.7 hPa Calm     77 % 0 mm 0.0 W/m2 CLR
00:36 -10.4 °C -12.4 °C 34418.7 hPa Calm     78 % 0 mm 0.0 W/m2 CLR
00:41 -10.5 °C -12.6 °C 34418.7 hPa Calm     78 % 0 mm 0.0 W/m2 CLR
00:46 -10.6 °C -12.7 °C 34418.7 hPa Calm     78 % 0 mm 0.0 W/m2 CLR
00:51 -10.7 °C -12.7 °C 34418.7 hPa Calm     79 % 0 mm 0.0 W/m2 CLR
00:56 -10.8 °C -12.7 °C 34418.7 hPa Calm     79 % 0 mm 0.0 W/m2 CLR
01:01 -10.8 °C -12.7 °C 34428.8 hPa Calm     80 % 0 mm 0.0 W/m2 CLR
01:06 -10.8 °C -12.7 °C 34428.8 hPa Calm     80 % 0 mm 0.0 W/m2 CLR
01:11 -10.9 °C -12.7 °C 34428.8 hPa Calm     80 % 0 mm 0.0 W/m2 CLR
01:16 -10.9 °C -12.7 °C 34442.4 hPa Calm     81 % 0 mm 0.0 W/m2 CLR
01:21 -11.1 °C -12.8 °C 34442.4 hPa Calm     81 % 0 mm 0.0 W/m2 CLR
01:26 -11.1 °C -12.9 °C 34442.4 hPa Calm     81 % 0 mm 0.0 W/m2 CLR
01:31 -11.2 °C -12.9 °C 34442.4 hPa Calm     81 % 0 mm 0.0 W/m2 CLR
01:36 -11.2 °C -12.9 °C 34442.4 hPa Calm     81 % 0 mm 0.0 W/m2 CLR
01:41 -11.2 °C -12.9 °C 34442.4 hPa Calm     82 % 0 mm 0.0 W/m2 CLR
01:46 -11.2 °C -12.9 °C 34442.4 hPa Calm     81 % 0 mm 0.0 W/m2 CLR
01:51 -11.2 °C -12.9 °C 34452.6 hPa Calm     81 % 0 mm 0.0 W/m2 CLR
01:57 -11.1 °C -12.9 °C 34452.6 hPa Calm     81 % 0 mm 0.0 W/m2 CLR
02:01 -11 °C -12.8 °C 34452.6 hPa Calm     80 % 0 mm 0.0 W/m2 CLR
02:06 -10.9 °C -13 °C 34452.6 hPa Calm     78 % 0 mm 0.0 W/m2 CLR
02:11 -11.1 °C -13.2 °C 34452.6 hPa Calm     77 % 0 mm 0.0 W/m2 CLR
02:16 -11.2 °C -13.3 °C 34452.6 hPa Calm     78 % 0 mm 0.0 W/m2 CLR
02:22 -11.3 °C -13.2 °C 34452.6 hPa Calm     79 % 0 mm 0.0 W/m2 CLR
02:27 -11.3 °C -13.4 °C 34452.6 hPa Calm     77 % 0 mm 0.0 W/m2 CLR
02:32 -11.1 °C -13.2 °C 34452.6 hPa WNW 12.9 km/h 12.9 km/h 77 % 0 mm 0.0 W/m2 CLR
02:37 -10.6 °C -13 °C 34452.6 hPa WNW 15.6 km/h 15.6 km/h 75 % 0 mm 0.0 W/m2 CLR
02:42 -9.9 °C -12.8 °C 34452.6 hPa West 20.9 km/h 20.9 km/h 71 % 0 mm 0.0 W/m2 CLR
02:47 -9.6 °C -12.8 °C 34452.6 hPa WNW 6 km/h 6 km/h 68 % 0 mm 0.0 W/m2 CLR
02:52 -9.7 °C -13.1 °C 34452.6 hPa Calm     67 % 0 mm 0.0 W/m2 CLR
02:57 -9.8 °C -13.2 °C 34452.6 hPa Calm     67 % 0 mm 0.0 W/m2 CLR
03:02 -9.8 °C -13.1 °C 34452.6 hPa WSW 6 km/h 6 km/h 68 % 0 mm 0.0 W/m2 CLR
03:07 -9.8 °C -13 °C 34452.6 hPa SW 17.9 km/h 17.9 km/h 68 % 0 mm 0.0 W/m2 CLR
03:12 -9.8 °C -13.2 °C 34442.4 hPa WSW 12.9 km/h 12.9 km/h 67 % 0 mm 0.0 W/m2 CLR
03:17 -9.9 °C -13.2 °C 34442.4 hPa SW 15 km/h 15 km/h 68 % 0 mm 0.0 W/m2 CLR
03:22 -10.1 °C -13.3 °C 34442.4 hPa WSW 3.1 km/h   68 % 0 mm 0.0 W/m2 CLR
03:27 -10.1 °C -13.2 °C 34442.4 hPa Calm     69 % 0 mm 0.0 W/m2 CLR
03:32 -10.1 °C -13.2 °C 34442.4 hPa Calm     69 % 0 mm 0.0 W/m2 CLR
03:37 -10.2 °C -13.3 °C 34442.4 hPa Calm     69 % 0 mm 0.0 W/m2 CLR
03:42 -10.3 °C -13.3 °C 34442.4 hPa WSW 7.7 km/h 7.7 km/h 70 % 0 mm 0.0 W/m2 CLR
03:47 -10.4 °C -13.4 °C 34442.4 hPa WSW 3.1 km/h   70 % 0 mm 0.0 W/m2 CLR
03:52 -10.4 °C -13.3 °C 34442.4 hPa WSW 6 km/h   71 % 0 mm 0.0 W/m2 CLR
03:57 -10.5 °C -13.4 °C 34452.6 hPa SW 9 km/h 9 km/h 70 % 0 mm 0.0 W/m2 CLR
04:02 -10.6 °C -13.4 °C 34442.4 hPa WSW 11.9 km/h 11.9 km/h 71 % 0 mm 0.0 W/m2 CLR
04:07 -10.7 °C -13.5 °C 34442.4 hPa WSW 9 km/h 9 km/h 72 % 0 mm 0.0 W/m2 CLR
04:12 -10.8 °C -13.5 °C 34442.4 hPa Calm     72 % 0 mm 0.0 W/m2 CLR
04:17 -10.7 °C -13.4 °C 34442.4 hPa Calm     72 % 0 mm 0.0 W/m2 CLR
04:22 -10.7 °C -13.6 °C 34442.4 hPa Calm     71 % 0 mm 0.0 W/m2 CLR
04:27 -10.9 °C -13.7 °C 34442.4 hPa Calm     71 % 0 mm 0.0 W/m2 CLR
04:32 -11.1 °C -13.7 °C 34442.4 hPa Calm     73 % 0 mm 0.0 W/m2 CLR
04:37 -11.1 °C -13.7 °C 34442.4 hPa Calm     73 % 0 mm 0.0 W/m2 CLR
04:42 -11.1 °C -13.7 °C 34442.4 hPa West 9 km/h 9 km/h 73 % 0 mm 0.0 W/m2 CLR
04:47 -11 °C -13.6 °C 34442.4 hPa Calm     73 % 0 mm 0.0 W/m2 CLR
04:52 -11.1 °C -13.8 °C 34442.4 hPa Calm     72 % 0 mm 0.0 W/m2 CLR
04:57 -11.4 °C -14 °C 34442.4 hPa Calm     73 % 0 mm 0.0 W/m2 CLR
05:02 -11.6 °C -14.1 °C 34428.8 hPa Calm     74 % 0 mm 0.0 W/m2 CLR
05:07 -11.7 °C -13.9 °C 34428.8 hPa WSW 11.9 km/h 11.9 km/h 76 % 0 mm 0.0 W/m2 CLR
05:12 -11.7 °C -13.9 °C 34428.8 hPa WSW 26.9 km/h 26.9 km/h 77 % 0 mm 0.0 W/m2 CLR
05:17 -11.6 °C -13.8 °C 34428.8 hPa West 26.9 km/h 26.9 km/h 76 % 0 mm 0.0 W/m2 CLR
05:22 -11.2 °C -13.7 °C 34428.8 hPa WSW 23.8 km/h 23.8 km/h 74 % 0 mm 0.0 W/m2 CLR
05:27 -11.1 °C -13.8 °C 34428.8 hPa West 23.8 km/h 23.8 km/h 72 % 0 mm 0.0 W/m2 CLR
05:32 -11 °C -13.7 °C 34428.8 hPa WSW 9 km/h 9 km/h 72 % 0 mm 0.0 W/m2 CLR
05:37 -11 °C -13.7 °C 34428.8 hPa SW 12.9 km/h 12.9 km/h 72 % 0 mm 0.0 W/m2 CLR
05:42 -11.1 °C -13.8 °C 34428.8 hPa SSW 11.9 km/h 11.9 km/h 72 % 0 mm 0.0 W/m2 CLR
05:47 -11.2 °C -13.9 °C 34428.8 hPa Calm     72 % 0 mm 0.0 W/m2 CLR
05:52 -11.5 °C -14 °C 34428.8 hPa SSW 11.9 km/h 11.9 km/h 74 % 0 mm 0.0 W/m2 CLR
05:57 -11.8 °C -14.1 °C 34428.8 hPa WSW 9 km/h 9 km/h 75 % 0 mm 0.0 W/m2 CLR
06:02 -11.9 °C -14.2 °C 34428.8 hPa SW 17.9 km/h 17.9 km/h 76 % 0 mm 0.0 W/m2 CLR
06:07 -12.1 °C -14.2 °C 34428.8 hPa WSW 17.9 km/h 17.9 km/h 77 % 0 mm 0.0 W/m2 CLR
06:12 -12 °C -14.1 °C 34428.8 hPa WSW 15 km/h 15 km/h 78 % 0 mm 0.0 W/m2 CLR
06:17 -12.1 °C -14.1 °C 34418.7 hPa WSW 18.2 km/h 18.2 km/h 78 % 0 mm 0.0 W/m2 CLR
06:22 -11.9 °C -14 °C 34418.7 hPa WSW 9 km/h 9 km/h 78 % 0 mm 0.0 W/m2 CLR
06:27 -11.9 °C -14.1 °C 34428.8 hPa WSW 17.9 km/h 17.9 km/h 77 % 0 mm 0.0 W/m2 CLR
06:32 -11.9 °C -14.1 °C 34428.8 hPa SW 20.9 km/h 20.9 km/h 77 % 0 mm 0.0 W/m2 CLR
06:37 -11.9 °C -14.1 °C 34428.8 hPa SW 17.9 km/h 17.9 km/h 77 % 0 mm 0.0 W/m2 CLR
06:42 -11.9 °C -14.2 °C 34428.8 hPa SW 9 km/h 9 km/h 76 % 0 mm 0.0 W/m2 CLR
06:47 -12.1 °C -14.2 °C 34428.8 hPa SW 18.2 km/h 18.2 km/h 77 % 0 mm 0.0 W/m2 CLR
06:52 -12.1 °C -14.2 °C 34428.8 hPa WSW 17.9 km/h 17.9 km/h 78 % 0 mm 0.0 W/m2 CLR
06:57 -12.1 °C -14.1 °C 34442.4 hPa WSW 18.2 km/h 18.2 km/h 78 % 0 mm 0.0 W/m2 CLR
07:02 -11.9 °C -14.1 °C 34442.4 hPa WSW 20.8 km/h 20.8 km/h 77 % 0 mm 0.0 W/m2 CLR
07:07 -11.9 °C -14.1 °C 34428.8 hPa SW 15 km/h 15 km/h 76 % 0 mm 0.0 W/m2 OVC
07:12 -11.9 °C -14.1 °C 34428.8 hPa Calm     76 % 0 mm 0.0 W/m2 OVC
07:17 -12 °C -14.3 °C 34442.4 hPa Calm     76 % 0 mm 5.0 W/m2 OVC
07:22 -12.1 °C -14.1 °C 34442.4 hPa WSW 11.9 km/h 11.9 km/h 78 % 0 mm 9.0 W/m2 BKN
07:27 -11.9 °C -14.1 °C 34442.4 hPa Calm     77 % 0 mm 12.0 W/m2 BKN
07:32 -11.8 °C -14.1 °C 34442.4 hPa WSW 10.3 km/h 10.3 km/h 76 % 0 mm 16.0 W/m2 BKN
07:37 -11.7 °C -14.1 °C 34442.4 hPa WSW 11.9 km/h 11.9 km/h 75 % 0 mm 19.0 W/m2 BKN
07:42 -11.6 °C -14.1 °C 34442.4 hPa WSW 11.9 km/h 11.9 km/h 74 % 0 mm 23.0 W/m2 BKN
07:47 -11.4 °C -13.9 °C 34442.4 hPa Calm     74 % 0 mm 30.0 W/m2 BKN
07:52 -11.3 °C -13.9 °C 34442.4 hPa Calm     73 % 0 mm 40.0 W/m2 BKN
07:57 -11.3 °C -13.9 °C 34452.6 hPa Calm     73 % 0 mm 53.0 W/m2 SCT
08:02 -11.4 °C -13.9 °C 34452.6 hPa Calm     74 % 0 mm 63.0 W/m2 SCT
08:07 -11.2 °C -13.8 °C 34452.6 hPa Calm     73 % 0 mm 56.0 W/m2 SCT
08:12 -11.2 °C -13.7 °C 34452.6 hPa Calm     73 % 0 mm 81.0 W/m2 FEW
08:17 -11 °C -13.7 °C 34452.6 hPa Calm     72 % 0 mm 109.0 W/m2 FEW
08:19 -11 °C -13.7 °C 34452.6 hPa Calm     72 % 0 mm 114.0 W/m2 CLR
08:24 -10.9 °C -13.7 °C 34452.6 hPa West 7.7 km/h 7.7 km/h 72 % 0 mm 132.0 W/m2 CLR
08:29 -10.7 °C -13.6 °C 34452.6 hPa Calm     71 % 0 mm 135.0 W/m2 CLR
08:34 -10.6 °C -13.6 °C 34462.7 hPa Calm     70 % 0 mm 162.0 W/m2 CLR
08:39 -10.7 °C -13.7 °C 34462.7 hPa Calm     70 % 0 mm 172.0 W/m2 CLR
08:44 -10.9 °C -13.7 °C 34462.7 hPa Calm     71 % 0 mm 178.0 W/m2 CLR
08:49 -10.9 °C -13.8 °C 34462.7 hPa Calm     71 % 0 mm 192.0 W/m2 CLR
08:54 -10.8 °C -13.6 °C 34462.7 hPa Calm     72 % 0 mm 181.0 W/m2 CLR
08:59 -10.6 °C -13.4 °C 34462.7 hPa Calm     71 % 0 mm 209.0 W/m2 CLR
09:04 -10.4 °C -13.4 °C 34462.7 hPa Calm     70 % 0 mm 135.0 W/m2 CLR
09:09 -10.3 °C -13.4 °C 34462.7 hPa Calm     69 % 0 mm 185.0 W/m2 CLR
09:14 -10.1 °C -13.6 °C 34462.7 hPa West 20.9 km/h 20.9 km/h 66 % 0 mm 276.0 W/m2 CLR
09:19 -9.7 °C -13.6 °C 34452.6 hPa West 15 km/h 15 km/h 63 % 0 mm 299.0 W/m2 CLR
09:24 -9.4 °C -13.6 °C 34452.6 hPa WNW 17.9 km/h 18.8 km/h 61 % 0 mm 343.0 W/m2 CLR
09:29 -9.3 °C -13.6 °C 34452.6 hPa WNW 38.8 km/h 38.8 km/h 60 % 0 mm 355.0 W/m2 CLR
09:34 -9.3 °C -13.7 °C 34452.6 hPa WNW 32.8 km/h 32.8 km/h 59 % 0 mm 373.0 W/m2 CLR
09:39 -9.1 °C -13.6 °C 34452.6 hPa West 26.9 km/h 26.9 km/h 59 % 0 mm 385.0 W/m2 CLR
09:44 -9.1 °C -13.7 °C 34452.6 hPa West 47.6 km/h 47.6 km/h 58 % 0 mm 401.0 W/m2 CLR
09:49 -9.1 °C -13.6 °C 34452.6 hPa NNW 31.1 km/h 31.1 km/h 59 % 0 mm 418.0 W/m2 CLR
09:54 -9.1 °C -13.8 °C 34452.6 hPa WNW 38.8 km/h 38.8 km/h 57 % 0 mm 438.0 W/m2 CLR
09:59 -9.1 °C -13.7 °C 34452.6 hPa NW 29.8 km/h 29.8 km/h 58 % 0 mm 454.0 W/m2 CLR
10:04 -9.1 °C -13.6 °C 34452.6 hPa West 41.7 km/h 41.7 km/h 58 % 0 mm 469.0 W/m2 CLR
10:09 -9.1 °C -13.7 °C 34452.6 hPa WSW 35.7 km/h 35.7 km/h 58 % 0 mm 483.0 W/m2 CLR
10:14 -9 °C -13.4 °C 34442.4 hPa WNW 20.9 km/h 20.9 km/h 59 % 0 mm 499.0 W/m2 CLR
10:19 -8.9 °C -13.6 °C 34442.4 hPa West 41.4 km/h 41.4 km/h 57 % 0 mm 519.0 W/m2 CLR
10:24 -8.8 °C -13.4 °C 34442.4 hPa NW 32.8 km/h 32.8 km/h 58 % 0 mm 533.0 W/m2 CLR
10:29 -8.7 °C -13.5 °C 34442.4 hPa WNW 20.9 km/h 20.9 km/h 57 % 0 mm 545.0 W/m2 CLR
10:34 -8.5 °C -13.7 °C 34442.4 hPa WNW 49.2 km/h 49.2 km/h 54 % 0 mm 561.0 W/m2 CLR
10:39 -8.5 °C -13.7 °C 34442.4 hPa NW 44.7 km/h 44.7 km/h 54 % 0 mm 575.0 W/m2 CLR
10:44 -8.4 °C -13.7 °C 34442.4 hPa NW 50.7 km/h 50.7 km/h 54 % 0 mm 589.0 W/m2 CLR
10:49 -8.5 °C -13.7 °C 34442.4 hPa NW 53.6 km/h 53.6 km/h 54 % 0 mm 605.0 W/m2 CLR
10:54 -8.4 °C -13.5 °C 34442.4 hPa WNW 32.8 km/h 32.8 km/h 55 % 0 mm 617.0 W/m2 CLR
10:59 -8.4 °C -13.6 °C 34442.4 hPa NW 29.8 km/h 29.8 km/h 54 % 0 mm 631.0 W/m2 CLR
11:04 -8.2 °C -13.4 °C 34442.4 hPa NW 46.7 km/h 46.7 km/h 54 % 0 mm 643.0 W/m2 CLR
11:09 -8.1 °C -13.6 °C 34442.4 hPa WNW 29.8 km/h 29.8 km/h 52 % 0 mm 654.0 W/m2 CLR
11:14 -8 °C -13.6 °C 34442.4 hPa NW 41.7 km/h 41.7 km/h 52 % 0 mm 666.0 W/m2 CLR
11:19 -8 °C -13.6 °C 34452.6 hPa NNW 44.7 km/h 44.7 km/h 52 % 0 mm 677.0 W/m2 CLR
11:24 -7.9 °C -13.5 °C 34452.6 hPa NNW 41.7 km/h 41.7 km/h 52 % 0 mm 691.0 W/m2 CLR
11:29 -7.9 °C -13.7 °C 34442.4 hPa WNW 35.7 km/h 35.7 km/h 51 % 0 mm 700.0 W/m2 CLR
11:34 -7.9 °C -13.4 °C 34442.4 hPa NW 32.8 km/h 32.8 km/h 52 % 0 mm 710.0 W/m2 CLR
11:39 -7.7 °C -13.7 °C 34442.4 hPa WNW 50.7 km/h 50.7 km/h 50 % 0 mm 721.0 W/m2 CLR
11:44 -7.7 °C -13.6 °C 34442.4 hPa West 44.1 km/h 44.1 km/h 50 % 0 mm 737.0 W/m2 CLR
11:49 -7.6 °C -13.3 °C 34442.4 hPa NW 38.8 km/h 38.8 km/h 51 % 0 mm 745.0 W/m2 CLR
11:54 -7.4 °C -13.4 °C 34442.4 hPa West 47.6 km/h 47.6 km/h 50 % 0 mm 752.0 W/m2 CLR
11:59 -7.4 °C -13.5 °C 34442.4 hPa West 41.7 km/h 41.7 km/h 49 % 0 mm 761.0 W/m2 CLR
12:04 -7.4 °C -13.2 °C 34428.8 hPa WNW 32.8 km/h 32.8 km/h 51 % 0 mm 775.0 W/m2 CLR
12:09 -7.2 °C -13.3 °C 34428.8 hPa NNW 29.8 km/h 29.8 km/h 49 % 0 mm 784.0 W/m2 CLR
12:14 -7.1 °C -13.3 °C 34428.8 hPa NW 44.7 km/h 44.7 km/h 48 % 0 mm 795.0 W/m2 CLR
12:19 -7.1 °C -13.6 °C 34428.8 hPa NW 35.7 km/h 35.7 km/h 47 % 0 mm 800.0 W/m2 CLR
12:24 -7.1 °C -13.3 °C 34428.8 hPa WNW 29.8 km/h 29.8 km/h 48 % 0 mm 803.0 W/m2 CLR
12:29 -6.8 °C -13.2 °C 34428.8 hPa NW 29.8 km/h 29.8 km/h 48 % 0 mm 816.0 W/m2 CLR
12:34 -6.7 °C -13.4 °C 34428.8 hPa NW 41.7 km/h 41.7 km/h 46 % 0 mm 821.0 W/m2 CLR
12:39 -7 °C -13.4 °C 34418.7 hPa NW 41.7 km/h 41.7 km/h 47 % 0 mm 831.0 W/m2 CLR
12:44 -6.8 °C -13.3 °C 34418.7 hPa WNW 35.7 km/h 35.7 km/h 47 % 0 mm 837.0 W/m2 CLR
12:49 -6.8 °C -13.3 °C 34418.7 hPa WSW 17.9 km/h 17.9 km/h 47 % 0 mm 844.0 W/m2 CLR
12:54 -6.7 °C -13 °C 34418.7 hPa NW 26.9 km/h 26.9 km/h 48 % 0 mm 849.0 W/m2 CLR
12:59 -6.6 °C -13.1 °C 34418.7 hPa NW 47.6 km/h 47.6 km/h 47 % 0 mm 858.0 W/m2 CLR
13:04 -6.5 °C -13 °C 34418.7 hPa NNW 38.8 km/h 38.8 km/h 47 % 0 mm 860.0 W/m2 CLR
13:09 -6.4 °C -12.7 °C 34418.7 hPa NNW 36.2 km/h 36.2 km/h 48 % 0 mm 861.0 W/m2 CLR
13:14 -6.3 °C -12.9 °C 34405.1 hPa West 41.7 km/h 41.7 km/h 47 % 0 mm 860.0 W/m2 CLR
13:19 -6.3 °C -12.8 °C 34405.1 hPa NW 11.9 km/h 11.9 km/h 47 % 0 mm 824.0 W/m2 CLR
13:24 -6.1 °C -12.7 °C 34405.1 hPa WNW 32.8 km/h 32.8 km/h 46 % 0 mm 856.0 W/m2 CLR
13:29 -6 °C -12.7 °C 34405.1 hPa WNW 50.7 km/h 50.7 km/h 46 % 0 mm 881.0 W/m2 CLR
13:34 -5.9 °C -12.9 °C 34405.1 hPa WNW 33.6 km/h 33.6 km/h 45 % 0 mm 888.0 W/m2 CLR
13:39 -5.8 °C -12.6 °C 34395 hPa NW 47.6 km/h 47.6 km/h 46 % 0 mm 874.0 W/m2 CLR
13:44 -5.9 °C -12.9 °C 34395 hPa NNW 26.9 km/h 26.9 km/h 45 % 0 mm 889.0 W/m2 CLR
13:49 -5.9 °C -12.8 °C 34395 hPa NNW 29.8 km/h 29.8 km/h 45 % 0 mm 881.0 W/m2 CLR
13:54 -5.8 °C -12.9 °C 34384.8 hPa NW 38.8 km/h 38.8 km/h 44 % 0 mm 893.0 W/m2 CLR
13:59 -5.7 °C -12.7 °C 34384.8 hPa Calm     44 % 0 mm 896.0 W/m2 CLR
14:04 -5.5 °C -12.7 °C 34384.8 hPa WNW 32.8 km/h 32.8 km/h 44 % 0 mm 904.0 W/m2 CLR
14:09 -5.5 °C -12.8 °C 34384.8 hPa NNW 29.8 km/h 29.8 km/h 43 % 0 mm 853.0 W/m2 CLR
14:14 -5.4 °C -12.9 °C 34384.8 hPa NNW 38.8 km/h 38.8 km/h 42 % 0 mm 914.0 W/m2 CLR
14:19 -5.3 °C -12.9 °C 34371.3 hPa WNW 33.6 km/h 33.6 km/h 42 % 0 mm 898.0 W/m2 CLR
14:20 -5.3 °C -12.8 °C 34371.3 hPa NW 10.3 km/h 19.2 km/h 42 % 0 mm 898.0 W/m2 CLR
14:25 -5.2 °C -12.7 °C 34384.8 hPa NW 26.9 km/h 26.9 km/h 42 % 0 mm 786.0 W/m2 CLR
14:30 -5.2 °C -12.9 °C 34371.3 hPa West 23.8 km/h 23.8 km/h 41 % 0 mm 858.0 W/m2 CLR
14:35 -5.1 °C -12.8 °C 34371.3 hPa West 17.9 km/h 17.9 km/h 41 % 0 mm 925.0 W/m2 CLR
14:40 -5.1 °C -12.8 °C 34371.3 hPa NNW 35.7 km/h 35.7 km/h 41 % 0 mm 923.0 W/m2 CLR
14:45 -5.1 °C -12.7 °C 34371.3 hPa NW 38.8 km/h 38.8 km/h 42 % 0 mm 788.0 W/m2 CLR
14:50 -5.2 °C -12.7 °C 34371.3 hPa North 29.8 km/h 29.8 km/h 42 % 0 mm 684.0 W/m2 CLR
14:55 -5.1 °C -12.4 °C 34371.3 hPa North 29.8 km/h 29.8 km/h 43 % 0 mm 879.0 W/m2 CLR
15:00 -5 °C -12.4 °C 34361.1 hPa North 31.1 km/h 31.1 km/h 43 % 0 mm 902.0 W/m2 CLR
15:05 -4.8 °C -12.4 °C 34361.1 hPa NW 31.1 km/h 31.1 km/h 42 % 0 mm 858.0 W/m2 CLR
15:10 -4.8 °C -12.6 °C 34361.1 hPa NW 6 km/h   41 % 0 mm 838.0 W/m2 CLR
15:15 -4.7 °C -12.4 °C 34361.1 hPa Calm     41 % 0 mm 842.0 W/m2 CLR
15:20 -4.6 °C -12.6 °C 34361.1 hPa NW 38.8 km/h 38.8 km/h 40 % 0 mm 846.0 W/m2 CLR
15:25 -4.6 °C -12.4 °C 34347.6 hPa NW 31.1 km/h 31.1 km/h 41 % 0 mm 833.0 W/m2 CLR
15:30 -4.7 °C -12.4 °C 34347.6 hPa NNW 29.8 km/h 29.8 km/h 41 % 0 mm 838.0 W/m2 CLR
15:35 -4.7 °C -12.5 °C 34347.6 hPa ENE 10.3 km/h 10.3 km/h 41 % 0 mm 821.0 W/m2 CLR
15:40 -4.7 °C -12.5 °C 34347.6 hPa NW 32.8 km/h 32.8 km/h 41 % 0 mm 786.0 W/m2 CLR
15:45 -4.6 °C -12.4 °C 34347.6 hPa NNW 38.8 km/h 38.8 km/h 41 % 0 mm 856.0 W/m2 CLR
15:50 -4.6 °C -12.6 °C 34347.6 hPa NW 11.9 km/h 11.9 km/h 40 % 0 mm 847.0 W/m2 CLR
15:55 -4.5 °C -12.3 °C 34347.6 hPa NNW 26.9 km/h 26.9 km/h 41 % 0 mm 831.0 W/m2 CLR
16:00 -4.5 °C -12.5 °C 34337.4 hPa North 11.9 km/h 11.9 km/h 40 % 0 mm 821.0 W/m2 CLR
16:05 -4.6 °C -12.6 °C 34337.4 hPa North 38.8 km/h 38.8 km/h 40 % 0 mm 810.0 W/m2 CLR
16:10 -4.6 °C -12.7 °C 34337.4 hPa North 23.8 km/h 28.2 km/h 39 % 0 mm 802.0 W/m2 CLR
16:15 -4.4 °C -12.6 °C 34337.4 hPa North 29.8 km/h 29.8 km/h 39 % 0 mm 793.0 W/m2 CLR
16:20 -4.4 °C -12.8 °C 34337.4 hPa NNW 32.8 km/h 32.8 km/h 38 % 0 mm 777.0 W/m2 CLR
16:25 -4.3 °C -12.6 °C 34327.3 hPa NW 26.9 km/h 26.9 km/h 39 % 0 mm 761.0 W/m2 CLR
16:30 -4.2 °C -12.7 °C 34327.3 hPa NNE 32.8 km/h 32.8 km/h 38 % 0 mm 742.0 W/m2 CLR
16:35 -4.1 °C -12.6 °C 34327.3 hPa North 29.8 km/h 29.8 km/h 38 % 0 mm 615.0 W/m2 CLR
16:40 -4.4 °C -13.1 °C 34327.3 hPa NW 26.9 km/h 26.9 km/h 37 % 0 mm 264.0 W/m2 CLR
16:45 -4.4 °C -12.7 °C 34327.3 hPa North 26.9 km/h 26.9 km/h 39 % 0 mm 610.0 W/m2 CLR
16:50 -4.4 °C -12.9 °C 34327.3 hPa NNW 29.8 km/h 29.8 km/h 38 % 0 mm 438.0 W/m2 CLR
16:51 -4.4 °C -12.9 °C 34327.3 hPa North 29.8 km/h 29.8 km/h 38 % 0 mm 438.0 W/m2 CLR
16:56 -4.4 °C -12.9 °C 34327.3 hPa NNW 26.9 km/h 26.9 km/h 38 % 0 mm 747.0 W/m2 CLR
17:01 -4.3 °C -12.5 °C 34313.7 hPa NNW 26.9 km/h 26.9 km/h 39 % 0 mm 707.0 W/m2 CLR
17:06 -4.3 °C -12.5 °C 34313.7 hPa North 6 km/h 6 km/h 39 % 0 mm 664.0 W/m2 CLR
17:11 -4.2 °C -12.7 °C 34313.7 hPa North 38.8 km/h 38.8 km/h 38 % 0 mm 612.0 W/m2 CLR
17:16 -4.3 °C -12.8 °C 34313.7 hPa North 9 km/h 9 km/h 38 % 0 mm 545.0 W/m2 CLR
17:21 -4.4 °C -12.9 °C 34313.7 hPa North 32.8 km/h 32.8 km/h 38 % 0 mm 459.0 W/m2 CLR
17:26 -4.4 °C -12.9 °C 34313.7 hPa NNW 28.5 km/h 28.5 km/h 38 % 0 mm 489.0 W/m2 CLR
17:31 -4.5 °C -12.6 °C 34313.7 hPa North 6 km/h 6 km/h 40 % 0 mm 494.0 W/m2 CLR
17:36 -4.4 °C -12.8 °C 34313.7 hPa North 29.8 km/h 29.8 km/h 38 % 0 mm 564.0 W/m2 CLR
17:41 -4.3 °C -12.6 °C 34313.7 hPa NW 9 km/h 9 km/h 39 % 0 mm 554.0 W/m2 CLR
17:46 -4.2 °C -13.2 °C 34313.7 hPa NNW 9 km/h 9 km/h 36 % 0 mm 536.0 W/m2 CLR
17:51 -4.2 °C -13.2 °C 34313.7 hPa North 3.1 km/h   36 % 0 mm 512.0 W/m2 CLR
17:56 -4.1 °C -13.3 °C 34313.7 hPa Calm   4.3 km/h 35 % 0 mm 497.0 W/m2 CLR
18:01 -4.2 °C -13.6 °C 34313.7 hPa WNW 32.8 km/h 32.8 km/h 34 % 0 mm 480.0 W/m2 CLR
18:06 -4.2 °C -13.6 °C 34313.7 hPa Calm     34 % 0 mm 462.0 W/m2 CLR
18:11 -4 °C -13.7 °C 34313.7 hPa NW 12.9 km/h 12.9 km/h 33 % 0 mm 438.0 W/m2 CLR
18:12 -3.9 °C -13.8 °C 34303.6 hPa NW 12.9 km/h 12.9 km/h 32 % 0 mm 432.0 W/m2 CLR
18:17 -4 °C -13.7 °C 34313.7 hPa Calm     33 % 0 mm 413.0 W/m2 CLR
18:22 -3.9 °C -13.3 °C 34313.7 hPa NNW 10.3 km/h 10.3 km/h 34 % 0 mm 399.0 W/m2 CLR
18:27 -4.1 °C -13.5 °C 34313.7 hPa NNW 17.9 km/h 17.9 km/h 34 % 0 mm 380.0 W/m2 CLR
18:29 -4.1 °C -13.7 °C 34313.7 hPa NNW 11.9 km/h 11.9 km/h 33 % 0 mm 376.0 W/m2 CLR
18:34 -4.1 °C -13.4 °C 34313.7 hPa NW 15 km/h 15 km/h 34 % 0 mm 355.0 W/m2 CLR
18:39 -4.1 °C -13.5 °C 34313.7 hPa NW 11.9 km/h 11.9 km/h 34 % 0 mm 339.0 W/m2 CLR
18:44 -4.1 °C -13.5 °C 34303.6 hPa NNW 9 km/h 9 km/h 34 % 0 mm 323.0 W/m2 CLR
18:49 -4.1 °C -13.5 °C 34303.6 hPa NW 3.1 km/h 3.4 km/h 34 % 0 mm 308.0 W/m2 CLR
18:54 -4.2 °C -13.8 °C 34303.6 hPa NNW 20.9 km/h 20.9 km/h 33 % 0 mm 292.0 W/m2 CLR
18:59 -4.2 °C -13.8 °C 34303.6 hPa NNW 9 km/h   33 % 0 mm 272.0 W/m2 CLR
19:04 -4.2 °C -14.1 °C 34303.6 hPa NW 17.9 km/h 17.9 km/h 32 % 0 mm 257.0 W/m2 CLR
19:09 -4.2 °C -14.3 °C 34303.6 hPa WNW 17.9 km/h 17.9 km/h 31 % 0 mm 236.0 W/m2 CLR
19:14 -4.2 °C -14.1 °C 34303.6 hPa NW 18.2 km/h 18.2 km/h 32 % 0 mm 213.0 W/m2 CLR
19:19 -4.3 °C -13.9 °C 34303.6 hPa WNW 9 km/h 9 km/h 33 % 0 mm 193.0 W/m2 CLR
19:24 -4.3 °C -14.2 °C 34313.7 hPa NNW 9 km/h 9 km/h 32 % 0 mm 176.0 W/m2 CLR
19:29 -4.3 °C -14.4 °C 34313.7 hPa NW 20.8 km/h 20.8 km/h 31 % 0 mm 156.0 W/m2 CLR
19:34 -4.4 °C -14.5 °C 34313.7 hPa NW 23.8 km/h 23.8 km/h 31 % 0 mm 137.0 W/m2 CLR
19:40 -4.5 °C -14.3 °C 34313.7 hPa NNW 29.8 km/h 29.8 km/h 32 % 0 mm 118.0 W/m2 CLR
19:45 -4.6 °C -14.7 °C 34313.7 hPa NW 11.9 km/h 11.9 km/h 31 % 0 mm 102.0 W/m2 CLR
19:50 -4.6 °C -14.4 °C 34313.7 hPa NW 12.9 km/h 12.9 km/h 32 % 0 mm 86.0 W/m2 CLR
19:55 -4.7 °C -14.5 °C 34313.7 hPa Calm     32 % 0 mm 72.0 W/m2 FEW
20:00 -4.7 °C -14.3 °C 34313.7 hPa NW 15.6 km/h 15.6 km/h 33 % 0 mm 47.0 W/m2 SCT
20:05 -4.9 °C -14.2 °C 34313.7 hPa NNW 23.8 km/h 23.8 km/h 34 % 0 mm 32.0 W/m2 BKN
20:10 -5.1 °C -14.1 °C 34313.7 hPa NW 9 km/h 9 km/h 35 % 0 mm 23.0 W/m2 BKN
20:15 -5.2 °C -14.2 °C 34313.7 hPa Calm     35 % 0 mm 19.0 W/m2 BKN
20:20 -5.4 °C -14.1 °C 34313.7 hPa Calm     36 % 0 mm 16.0 W/m2 BKN
20:25 -5.6 °C -14.1 °C 34327.3 hPa Calm     37 % 0 mm 11.0 W/m2 BKN
20:30 -5.7 °C -14.2 °C 34327.3 hPa NW 9 km/h 9 km/h 37 % 0 mm 9.0 W/m2 BKN
20:35 -5.8 °C -14.1 °C 34327.3 hPa NNW 12.9 km/h 12.9 km/h 38 % 0 mm 7.0 W/m2 BKN
20:40 -5.9 °C -14.3 °C 34327.3 hPa NW 20.9 km/h 20.9 km/h 37 % 0 mm 0.0 W/m2 OVC
20:45 -5.9 °C -14.4 °C 34327.3 hPa NW 17.9 km/h 17.9 km/h 37 % 0 mm 0.0 W/m2 OVC
20:50 -6.1 °C -14.3 °C 34327.3 hPa NNW 17.9 km/h 17.9 km/h 38 % 0 mm 0.0 W/m2 OVC
20:55 -6.2 °C -14.4 °C 34337.4 hPa NNW 17.9 km/h 17.9 km/h 38 % 0 mm 0.0 W/m2 CLR
21:00 -6.3 °C -14.5 °C 34337.4 hPa NNW 17.9 km/h 17.9 km/h 38 % 0 mm 0.0 W/m2 CLR
21:05 -6.3 °C -14.4 °C 34337.4 hPa NNW 23.8 km/h 23.8 km/h 39 % 0 mm 0.0 W/m2 CLR
21:06 -6.3 °C -14.4 °C 34337.4 hPa NW 23.8 km/h 23.8 km/h 39 % 0 mm 0.0 W/m2 CLR
21:11 -6.4 °C -14.4 °C 34337.4 hPa NNW 26.9 km/h 26.9 km/h 39 % 0 mm 0.0 W/m2 CLR
21:16 -6.5 °C -14.3 °C 34347.6 hPa NNW 29.8 km/h 29.8 km/h 40 % 0 mm 0.0 W/m2 CLR
21:21 -6.6 °C -14.1 °C 34347.6 hPa NW 26.9 km/h 26.9 km/h 42 % 0 mm 0.0 W/m2 CLR
21:26 -6.8 °C -13.9 °C 34347.6 hPa WNW 29.8 km/h 29.8 km/h 43 % 0 mm 0.0 W/m2 CLR
21:31 -6.8 °C -13.8 °C 34361.1 hPa NW 26.9 km/h 26.9 km/h 44 % 0 mm 0.0 W/m2 CLR
21:36 -6.9 °C -13.9 °C 34361.1 hPa NW 23.8 km/h 23.8 km/h 44 % 0 mm 0.0 W/m2 CLR
21:41 -7 °C -13.8 °C 34371.3 hPa NW 17.9 km/h 17.9 km/h 45 % 0 mm 0.0 W/m2 CLR
21:46 -7.1 °C -13.7 °C 34371.3 hPa NW 17.9 km/h 17.9 km/h 46 % 0 mm 0.0 W/m2 CLR
21:51 -7.3 °C -13.8 °C 34371.3 hPa WNW 12.9 km/h 12.9 km/h 46 % 0 mm 0.0 W/m2 CLR
21:56 -7.4 °C -13.8 °C 34371.3 hPa WNW 10.3 km/h 10.3 km/h 47 % 0 mm 0.0 W/m2 CLR
22:01 -7.4 °C -13.9 °C 34384.8 hPa NW 7.7 km/h 7.7 km/h 47 % 0 mm 0.0 W/m2 CLR
22:06 -7.6 °C -13.8 °C 34384.8 hPa NW 6 km/h 6 km/h 48 % 0 mm 0.0 W/m2 CLR
22:11 -7.7 °C -13.9 °C 34384.8 hPa WNW 6 km/h 6 km/h 48 % 0 mm 0.0 W/m2 CLR
22:16 -7.8 °C -13.8 °C 34395 hPa WNW 9 km/h 9 km/h 49 % 0 mm 0.0 W/m2 CLR
22:21 -7.8 °C -13.8 °C 34395 hPa WNW 9 km/h 9 km/h 49 % 0 mm 0.0 W/m2 CLR
22:26 -7.8 °C -14 °C 34395 hPa WNW 9 km/h 9 km/h 48 % 0 mm 0.0 W/m2 CLR
22:31 -7.9 °C -13.9 °C 34395 hPa West 10.3 km/h 10.3 km/h 49 % 0 mm 0.0 W/m2 CLR
22:36 -7.9 °C -13.9 °C 34405.1 hPa West 15 km/h 15 km/h 49 % 0 mm 0.0 W/m2 CLR
22:41 -7.9 °C -14 °C 34405.1 hPa WNW 18.2 km/h 18.2 km/h 49 % 0 mm 0.0 W/m2 CLR
22:46 -8 °C -14 °C 34405.1 hPa West 15.6 km/h 15.6 km/h 49 % 0 mm 0.0 W/m2 CLR
22:51 -8 °C -14.1 °C 34405.1 hPa West 25.9 km/h 25.9 km/h 49 % 0 mm 0.0 W/m2 CLR
22:56 -8 °C -14.1 °C 34405.1 hPa WNW 28.5 km/h 28.5 km/h 49 % 0 mm 0.0 W/m2 CLR
23:01 -8.1 °C -14.3 °C 34405.1 hPa West 38.8 km/h 38.8 km/h 48 % 0 mm 0.0 W/m2 CLR
23:06 -8.2 °C -14.4 °C 34405.1 hPa West 44.7 km/h 44.7 km/h 48 % 0 mm 0.0 W/m2 CLR
23:11 -8.3 °C -14.5 °C 34418.7 hPa WNW 32.8 km/h 32.8 km/h 48 % 0 mm 0.0 W/m2 CLR
23:16 -8.4 °C -14.4 °C 34418.7 hPa WNW 38.8 km/h 38.8 km/h 49 % 0 mm 0.0 W/m2 CLR
23:21 -8.4 °C -14.4 °C 34418.7 hPa WNW 46.7 km/h 46.7 km/h 49 % 0 mm 0.0 W/m2 CLR
23:26 -8.5 °C -14.5 °C 34418.7 hPa WNW 41.7 km/h 41.7 km/h 49 % 0 mm 0.0 W/m2 CLR
23:31 -8.6 °C -14.6 °C 34418.7 hPa WNW 41.7 km/h 41.7 km/h 49 % 0 mm 0.0 W/m2 CLR
23:36 -8.7 °C -14.6 °C 34418.7 hPa WNW 32.8 km/h 32.8 km/h 49 % 0 mm 0.0 W/m2 CLR
23:41 -8.7 °C -14.7 °C 34418.7 hPa WNW 38.8 km/h 38.8 km/h 49 % 0 mm 0.0 W/m2 CLR
23:46 -8.8 °C -14.6 °C 34418.7 hPa West 44.1 km/h 44.1 km/h 50 % 0 mm 0.0 W/m2 CLR
23:51 -8.8 °C -14.6 °C 34418.7 hPa WNW 44.7 km/h 44.7 km/h 50 % 0 mm 0.0 W/m2 CLR
23:56 -8.9 °C -14.7 °C 34418.7 hPa WNW 38.8 km/h 38.8 km/h 50 % 0 mm 0.0 W/m2 CLR
Lo Temps de Massalio
Compliments of Weather Underground - 1.25 mb